Time;durP1;ratioP1;P1;durP2;ratioP2;P2;SDS_P1;SDS_P2;PMS_P1;PMS_P2;Temp;Humidity;BMP_temperature;BMP_pressure;BME280_temperature;BME280_humidity;BME280_pressure;Samples;Min_cycle;Max_cycle;Signal;HPM_P1;HPM_P2
2021/05/29 00:00:13;;;;;;;6.05;5.55;;;;;;;19.04;64.98;100461.66;5003673;28;102606;-73
2021/05/29 00:02:39;;;;;;;6.28;5.78;;;;;;;19.04;65.01;100469.94;4995163;28;102613;-73
2021/05/29 00:05:07;;;;;;;6.05;5.55;;;;;;;19.03;65.39;100466.38;5001174;28;102662;-73
2021/05/29 00:07:37;;;;;;;6.30;5.70;;;;;;;19.04;65.42;100456.16;5006975;28;104001;-73
2021/05/29 00:10:05;;;;;;;6.63;5.80;;;;;;;19.03;65.01;100454.53;5000860;28;102553;-73
2021/05/29 00:12:32;;;;;;;6.30;5.70;;;;;;;19.03;65.07;100460.06;4992167;28;102422;-73
2021/05/29 00:15:00;;;;;;;5.97;5.47;;;;;;;19.02;65.08;100464.75;5002776;28;102342;-73
2021/05/29 00:17:29;;;;;;;6.38;5.80;;;;;;;19.03;65.04;100462.81;4998700;28;103959;-73
2021/05/29 00:19:55;;;;;;;8.40;5.90;;;;;;;19.01;65.52;100451.31;4997312;28;102459;-74
2021/05/29 00:22:21;;;;;;;6.00;5.50;;;;;;;19.01;65.09;100443.84;4991565;28;102396;-72
2021/05/29 00:24:48;;;;;;;5.63;5.22;;;;;;;19.02;65.12;100447.41;4997686;28;102522;-73
2021/05/29 00:27:15;;;;;;;5.78;5.28;;;;;;;19.00;65.06;100435.91;4988434;28;103940;-73
2021/05/29 00:29:42;;;;;;;6.28;5.68;;;;;;;19.00;65.07;100438.66;5005506;28;102403;-73
2021/05/29 00:32:08;;;;;;;6.00;5.50;;;;;;;19.00;65.05;100438.66;4993151;28;102539;-73
2021/05/29 00:34:35;;;;;;;5.72;5.32;;;;;;;19.00;64.92;100433.13;5006418;28;102875;-73
2021/05/29 00:37:02;;;;;;;6.03;5.53;;;;;;;19.01;65.37;100434.78;4996225;28;104222;-73
2021/05/29 00:39:28;;;;;;;5.90;5.40;;;;;;;18.99;65.41;100428.78;5002707;28;102013;-72
2021/05/29 00:41:55;;;;;;;8.38;5.63;;;;;;;18.98;65.19;100430.72;4995202;28;102464;-72
2021/05/29 00:44:22;;;;;;;6.55;6.05;;;;;;;18.99;65.57;100429.56;5009711;28;102362;-73
2021/05/29 00:46:49;;;;;;;6.60;5.90;;;;;;;18.98;65.36;100418.91;4998781;28;103955;-73
2021/05/29 00:49:15;;;;;;;6.40;5.90;;;;;;;18.97;64.91;100423.59;4999446;28;102880;-73
2021/05/29 00:51:42;;;;;;;5.55;5.07;;;;;;;18.98;65.33;100413.38;4995012;28;102520;-73
2021/05/29 00:54:11;;;;;;;5.93;5.43;;;;;;;18.97;65.49;100409.81;4997427;28;102218;-73
2021/05/29 00:56:37;;;;;;;5.77;5.27;;;;;;;18.97;65.11;100412.56;4985250;28;104068;-73
2021/05/29 00:59:06;;;;;;;6.40;5.90;;;;;;;18.97;65.01;100415.34;4993788;28;102197;-73
2021/05/29 01:01:33;;;;;;;5.80;5.40;;;;;;;18.96;65.55;100417.25;5004954;28;102585;-73
2021/05/29 01:04:00;;;;;;;6.20;5.70;;;;;;;18.95;64.92;100426.69;5001223;28;102232;-73
2021/05/29 01:06:26;;;;;;;6.13;5.55;;;;;;;18.95;65.38;100415.66;4999636;28;103891;-73
2021/05/29 01:08:53;;;;;;;6.10;5.60;;;;;;;18.95;64.91;100432.19;5003587;28;102479;-73
2021/05/29 01:11:21;;;;;;;5.40;5.00;;;;;;;18.95;65.09;100437.72;4991682;28;102471;-74
2021/05/29 01:13:47;;;;;;;5.88;5.30;;;;;;;18.95;65.41;100432.19;4993220;28;102449;-73
2021/05/29 01:16:42;;;;;;;5.70;5.28;;;;;;;18.95;65.23;100431.41;5006781;28;103794;-73
2021/05/29 01:19:10;;;;;;;6.15;5.43;;;;;;;18.95;64.95;100429.44;4998835;28;102495;-73
2021/05/29 01:21:39;;;;;;;6.07;5.57;;;;;;;18.95;65.46;100428.63;4983428;28;102662;-73
2021/05/29 01:24:07;;;;;;;5.57;5.18;;;;;;;18.96;65.28;100424.72;4997206;28;102528;-73
2021/05/29 01:26:33;;;;;;;5.70;5.25;;;;;;;18.94;65.01;100414.03;4998438;28;103848;-72
2021/05/29 01:29:00;;;;;;;5.70;5.22;;;;;;;18.94;65.43;100419.56;4998216;28;102368;-72
2021/05/29 01:31:30;;;;;;;5.40;4.97;;;;;;;18.94;64.93;100419.56;4988955;28;102159;-72
2021/05/29 01:33:58;;;;;;;5.60;5.10;;;;;;;18.93;65.12;100415.19;4995509;28;102201;-73
2021/05/29 01:36:25;;;;;;;5.78;5.28;;;;;;;18.93;65.13;100417.94;4992501;28;102826;-73
2021/05/29 01:38:52;;;;;;;6.10;5.60;;;;;;;18.94;65.65;100408.53;5001883;28;102100;-73
2021/05/29 01:41:22;;;;;;;5.75;5.10;;;;;;;18.94;65.34;100418.75;5006036;28;102339;-73
2021/05/29 01:43:50;;;;;;;5.82;5.32;;;;;;;18.92;65.12;100410.81;5004089;28;102485;-73
2021/05/29 01:46:19;;;;;;;6.10;5.60;;;;;;;18.93;65.04;100414.38;5002705;28;102678;-73
2021/05/29 01:48:47;;;;;;;5.40;5.00;;;;;;;18.92;65.36;100421.03;4992842;28;102380;-73
2021/05/29 01:51:15;;;;;;;5.75;5.25;;;;;;;18.92;65.67;100421.84;4998196;28;104584;-73
2021/05/29 01:53:42;;;;;;;5.53;5.13;;;;;;;18.93;65.32;100419.88;5001849;28;102392;-73
2021/05/29 01:56:09;;;;;;;5.75;5.25;;;;;;;18.93;64.92;100422.63;5002986;28;102695;-73
2021/05/29 01:58:37;;;;;;;5.55;5.03;;;;;;;18.93;64.73;100425.38;4992232;28;102828;-73
2021/05/29 02:01:06;;;;;;;5.38;4.97;;;;;;;18.91;64.88;100425.75;5003906;28;102316;-73
2021/05/29 02:03:33;;;;;;;5.22;4.78;;;;;;;18.92;64.86;100432.88;4990229;28;102419;-73
2021/05/29 02:06:00;;;;;;;4.90;4.50;;;;;;;18.93;64.78;100434.50;4991835;28;103869;-73
2021/05/29 02:08:27;;;;;;;5.43;4.93;;;;;;;18.92;65.07;100432.88;5006948;28;103273;-73
2021/05/29 02:10:54;;;;;;;5.70;5.20;;;;;;;18.92;65.06;100443.91;4986718;28;102534;-73
2021/05/29 02:13:23;;;;;;;5.40;4.95;;;;;;;18.91;65.08;100453.31;4993950;28;102331;-74
2021/05/29 02:15:51;;;;;;;5.97;4.88;;;;;;;18.92;65.02;100471.47;5006680;28;103924;-74
2021/05/29 02:18:18;;;;;;;4.55;4.25;;;;;;;18.92;65.01;100474.22;5001952;28;102159;-73
2021/05/29 02:20:47;;;;;;;4.70;4.30;;;;;;;18.93;64.85;100472.28;4993031;28;102252;-72
2021/05/29 02:23:15;;;;;;;5.25;4.85;;;;;;;18.92;65.21;100476.19;4995051;28;102495;-74
2021/05/29 02:25:43;;;;;;;5.05;4.65;;;;;;;18.91;65.42;100471.81;5004265;28;103900;-73
2021/05/29 02:28:10;;;;;;;5.10;4.30;;;;;;;18.91;64.97;100486.41;5004822;28;102137;-73
2021/05/29 02:30:38;;;;;;;5.13;4.72;;;;;;;18.91;64.75;100483.66;4998924;28;102694;-73
2021/05/29 02:33:06;;;;;;;5.15;4.75;;;;;;;18.90;65.18;100484.78;5005591;28;102501;-73
2021/05/29 02:35:34;;;;;;;4.97;4.57;;;;;;;18.90;65.50;100493.06;5002015;28;104200;-73
2021/05/29 02:38:00;;;;;;;5.10;4.60;;;;;;;18.90;64.95;100495.03;4996745;28;102627;-73
2021/05/29 02:40:27;;;;;;;5.13;4.43;;;;;;;18.91;65.21;100497.44;4983950;28;102644;-73
2021/05/29 02:42:54;;;;;;;5.03;4.63;;;;;;;18.90;65.09;100484.00;5001544;28;102536;-74
2021/05/29 02:45:21;;;;;;;4.63;4.30;;;;;;;18.90;64.96;100475.72;4983218;28;103990;-73
2021/05/29 02:47:48;;;;;;;4.43;4.03;;;;;;;18.90;64.96;100473.75;4998886;28;102702;-72
2021/05/29 02:50:15;;;;;;;4.82;4.38;;;;;;;18.90;65.18;100471.00;4995152;28;102995;-74
2021/05/29 02:52:42;;;;;;;4.45;4.05;;;;;;;18.89;65.13;100469.38;4988819;28;103508;-74
2021/05/29 02:55:12;;;;;;;4.43;4.13;;;;;;;18.89;64.98;100472.13;4976317;28;103936;-74
2021/05/29 02:57:39;;;;;;;5.13;4.18;;;;;;;18.90;65.32;100473.75;4993931;28;102452;-73
2021/05/29 03:00:08;;;;;;;4.88;4.22;;;;;;;18.89;65.07;100469.38;4976972;28;102566;-74
2021/05/29 03:02:35;;;;;;;5.85;4.50;;;;;;;18.89;65.36;100465.81;4989857;28;102306;-73
2021/05/29 03:05:02;;;;;;;4.93;4.43;;;;;;;18.90;64.95;100461.94;5005512;28;104418;-74
2021/05/29 03:07:30;;;;;;;5.03;4.63;;;;;;;18.89;65.19;100463.84;5000725;28;102377;-73
2021/05/29 03:09:56;;;;;;;4.82;4.13;;;;;;;18.89;64.76;100460.28;4998640;28;102125;-74
2021/05/29 03:12:24;;;;;;;4.90;4.50;;;;;;;18.89;64.97;100463.84;4989333;28;102452;-73
2021/05/29 03:14:59;;;;;;;4.45;4.13;;;;;;;18.88;64.91;100459.50;4974553;28;103158;-74
2021/05/29 03:17:26;;;;;;;5.13;4.43;;;;;;;18.88;64.77;100456.72;5003706;28;102525;-73
2021/05/29 03:19:52;;;;;;;4.60;4.20;;;;;;;18.88;65.41;100458.69;5007542;28;102601;-73
2021/05/29 03:22:19;;;;;;;4.63;4.22;;;;;;;18.89;64.97;100465.81;5001179;28;102097;-73
2021/05/29 03:24:47;;;;;;;4.78;4.38;;;;;;;18.89;65.18;100468.56;5005810;28;102765;-73
2021/05/29 03:27:17;;;;;;;4.35;4.03;;;;;;;18.89;64.95;100465.81;5008666;28;102834;-73
2021/05/29 03:29:46;;;;;;;4.63;4.22;;;;;;;18.88;64.97;100465.00;5003500;28;102794;-72
2021/05/29 03:32:13;;;;;;;4.20;3.90;;;;;;;18.88;65.50;100462.25;5007843;28;102423;-73
2021/05/29 03:34:40;;;;;;;4.30;4.00;;;;;;;18.87;65.20;100466.16;4993148;28;103615;-73
2021/05/29 03:37:08;;;;;;;4.27;3.97;;;;;;;18.88;65.02;100465.00;4997849;28;102350;-73
2021/05/29 03:39:35;;;;;;;4.10;3.80;;;;;;;18.87;65.45;100468.91;5008732;28;102727;-73
2021/05/29 03:42:04;;;;;;;3.92;3.63;;;;;;;18.88;65.02;100469.72;5002084;28;102081;-73
2021/05/29 03:44:31;;;;;;;4.38;3.80;;;;;;;18.88;65.10;100473.28;5002924;28;103870;-73
2021/05/29 03:47:01;;;;;;;4.78;4.38;;;;;;;18.88;65.53;100475.22;4999694;28;102116;-74
2021/05/29 03:49:28;;;;;;;4.40;4.00;;;;;;;18.88;65.40;100480.75;4995385;28;102464;-73
2021/05/29 03:51:54;;;;;;;4.63;4.22;;;;;;;18.88;65.48;100484.31;5001620;28;102604;-74
2021/05/29 03:54:22;;;;;;;4.53;4.13;;;;;;;18.89;65.22;100490.63;5006411;28;103740;-73
2021/05/29 03:56:48;;;;;;;4.38;3.97;;;;;;;18.88;64.93;100495.34;5007750;28;102629;-74
2021/05/29 03:59:16;;;;;;;4.55;4.25;;;;;;;18.88;65.71;100495.34;4992250;28;102264;-74
2021/05/29 04:01:44;;;;;;;4.43;4.03;;;;;;;18.88;65.63;100492.56;5000383;28;102344;-73
2021/05/29 04:04:11;;;;;;;4.03;3.70;;;;;;;18.88;65.00;100498.09;5000018;28;103701;-74
2021/05/29 04:06:38;;;;;;;4.00;3.70;;;;;;;18.88;65.50;100502.81;5006825;28;102137;-73
2021/05/29 04:09:08;;;;;;;3.92;3.63;;;;;;;18.89;65.50;100505.22;4983607;28;102328;-74
2021/05/29 04:11:35;;;;;;;4.07;3.78;;;;;;;18.87;65.58;100499.25;4983242;28;102490;-73
2021/05/29 04:14:02;;;;;;;4.40;4.10;;;;;;;18.89;65.71;100496.94;4984397;28;104109;-73
2021/05/29 04:16:29;;;;;;;4.60;4.20;;;;;;;18.89;65.26;100510.72;4995563;28;102649;-73
2021/05/29 04:18:56;;;;;;;4.05;3.75;;;;;;;18.89;65.27;100499.69;4993625;28;102869;-73
2021/05/29 04:21:22;;;;;;;4.35;4.03;;;;;;;18.89;65.34;100499.69;5000675;28;102296;-73
2021/05/29 04:23:49;;;;;;;4.25;3.95;;;;;;;18.89;65.71;100502.47;5000828;28;103953;-74
2021/05/29 04:26:16;;;;;;;4.05;3.72;;;;;;;18.91;65.67;100502.94;5007261;28;102675;-73
2021/05/29 04:28:42;;;;;;;3.78;3.47;;;;;;;18.91;65.35;100504.91;4996897;28;102186;-73
2021/05/29 04:31:09;;;;;;;4.30;3.90;;;;;;;18.91;65.78;100502.94;4991408;28;102548;-74
2021/05/29 04:33:37;;;;;;;3.80;3.50;;;;;;;18.91;65.28;100516.72;5003252;28;104255;-73
2021/05/29 04:36:04;;;;;;;3.92;3.63;;;;;;;18.91;65.26;100525.00;4992967;28;102325;-73
2021/05/29 04:38:31;;;;;;;4.18;3.78;;;;;;;18.92;65.33;100521.09;5005193;28;103656;-73
2021/05/29 04:40:57;;;;;;;3.97;3.60;;;;;;;18.92;65.54;100518.34;5000982;28;102674;-73
2021/05/29 04:43:24;;;;;;;4.10;3.80;;;;;;;18.93;65.65;100522.75;5002821;28;103104;-74
2021/05/29 04:45:50;;;;;;;4.45;4.05;;;;;;;18.93;65.14;100521.91;5004060;28;102358;-73
2021/05/29 04:48:18;;;;;;;3.25;3.05;;;;;;;18.93;65.15;100522.75;4988837;28;102491;-73
2021/05/29 04:53:31;;;;;;;4.28;3.60;;;;;;;18.94;65.55;100529.88;5001736;28;103666;-73
2021/05/29 04:56:00;;;;;;;4.00;3.70;;;;;;;18.94;65.68;100518.84;4994641;28;102259;-73
2021/05/29 04:58:28;;;;;;;4.28;3.97;;;;;;;18.93;65.35;100522.75;5008449;28;102186;-73
2021/05/29 05:00:55;;;;;;;4.45;4.00;;;;;;;18.93;65.62;100517.22;5000048;28;102694;-73
2021/05/29 05:03:22;;;;;;;3.95;3.65;;;;;;;18.93;65.50;100517.22;5004926;28;103702;-73
2021/05/29 05:05:50;;;;;;;4.10;3.80;;;;;;;18.94;65.66;100513.31;4985826;28;102702;-73
2021/05/29 05:08:17;;;;;;;4.00;3.70;;;;;;;18.94;65.65;100518.03;4997071;28;102277;-73
2021/05/29 05:10:45;;;;;;;4.00;3.70;;;;;;;18.95;65.48;100514.94;4986124;28;102802;-73
2021/05/29 05:13:13;;;;;;;4.20;3.90;;;;;;;18.96;66.00;100516.53;4983679;28;103977;-72
2021/05/29 05:15:43;;;;;;;4.25;3.90;;;;;;;18.95;65.93;100522.41;5004228;28;103153;-73
2021/05/29 05:18:10;;;;;;;4.00;3.70;;;;;;;18.95;65.41;100519.63;5000644;28;102341;-73
2021/05/29 05:20:36;;;;;;;4.47;4.18;;;;;;;18.95;65.75;100520.44;4984793;28;102538;-73
2021/05/29 05:23:05;;;;;;;3.90;3.60;;;;;;;18.95;66.04;100520.44;4985085;28;103932;-73
2021/05/29 05:25:33;;;;;;;4.00;3.70;;;;;;;18.95;65.48;100531.47;4983416;28;102379;-73
2021/05/29 05:28:00;;;;;;;4.13;3.83;;;;;;;18.95;66.05;100528.72;4991388;28;102856;-73
2021/05/29 05:30:27;;;;;;;4.00;3.70;;;;;;;18.96;65.83;100533.06;5001402;28;103259;-74
2021/05/29 05:32:56;;;;;;;4.85;4.35;;;;;;;18.95;65.65;100530.66;5005805;28;103684;-74
2021/05/29 05:35:24;;;;;;;4.47;4.07;;;;;;;18.94;65.59;100529.88;4994189;28;102553;-75
2021/05/29 05:37:51;;;;;;;5.00;4.03;;;;;;;18.94;65.66;100535.38;5003004;28;102225;-73
2021/05/29 05:40:18;;;;;;;4.47;4.07;;;;;;;18.94;66.05;100523.53;4994501;28;102600;-73
2021/05/29 05:42:45;;;;;;;5.20;4.80;;;;;;;18.93;65.54;100532.94;4991169;28;104176;-73
2021/05/29 05:45:13;;;;;;;4.47;4.18;;;;;;;18.93;66.09;100528.25;4996907;28;102769;-74
2021/05/29 05:47:39;;;;;;;5.65;4.45;;;;;;;18.94;65.57;100535.38;4985734;28;102304;-74
2021/05/29 05:50:08;;;;;;;5.05;4.65;;;;;;;18.93;66.04;100532.94;4999116;28;102467;-74
2021/05/29 05:52:35;;;;;;;5.20;4.80;;;;;;;18.92;65.63;100537.66;4993768;28;103891;-74
2021/05/29 05:55:02;;;;;;;5.13;4.25;;;;;;;18.92;66.18;100536.84;4993094;28;102166;-73
2021/05/29 05:57:34;;;;;;;5.20;4.80;;;;;;;18.92;65.71;100537.66;4994380;28;102649;-73
2021/05/29 06:00:03;;;;;;;4.70;4.30;;;;;;;18.92;65.70;100537.66;5000986;28;102353;-73
2021/05/29 06:02:29;;;;;;;4.85;4.45;;;;;;;18.92;65.79;100531.31;4988619;28;103866;-74
2021/05/29 06:04:56;;;;;;;5.10;4.70;;;;;;;18.92;66.45;100540.41;4997720;28;102222;-73
2021/05/29 06:07:23;;;;;;;4.50;4.07;;;;;;;18.91;66.16;100530.53;4992436;28;102595;-74
2021/05/29 06:09:49;;;;;;;4.63;4.32;;;;;;;18.92;66.17;100537.66;4998378;28;102444;-74
2021/05/29 06:12:16;;;;;;;6.05;4.97;;;;;;;18.93;66.13;100533.78;5000408;28;104433;-74
2021/05/29 06:20:15;;;;;;;5.18;4.78;;;;;;;18.95;66.19;100541.69;5012363;28;102168;-74
2021/05/29 06:22:41;;;;;;;5.00;4.60;;;;;;;18.95;65.91;100547.22;4996577;28;103633;-74
2021/05/29 06:25:09;;;;;;;4.95;4.47;;;;;;;18.95;65.98;100549.97;5005671;28;102245;-74
2021/05/29 06:27:36;;;;;;;5.00;4.57;;;;;;;18.95;66.32;100556.28;5010804;28;102539;-73
2021/05/29 06:30:06;;;;;;;5.32;4.80;;;;;;;18.95;66.18;100553.53;5008286;28;102293;-74
2021/05/29 06:32:33;;;;;;;5.40;5.00;;;;;;;18.95;66.38;100553.53;5001528;28;104095;-74
2021/05/29 06:35:00;;;;;;;5.38;4.88;;;;;;;18.94;66.70;100560.19;5004456;28;102743;-74
2021/05/29 06:37:27;;;;;;;5.40;5.00;;;;;;;18.95;66.40;100555.47;4993218;28;102655;-73
2021/05/29 06:39:54;;;;;;;6.07;5.57;;;;;;;18.94;66.04;100551.94;4989199;28;103364;-74
2021/05/29 06:42:21;;;;;;;6.10;5.68;;;;;;;18.94;66.14;100559.38;4995996;28;103944;-73
2021/05/29 06:44:48;;;;;;;6.20;5.70;;;;;;;18.93;66.33;100555.84;4980733;28;102960;-74
2021/05/29 06:47:15;;;;;;;5.97;5.47;;;;;;;18.92;65.90;100559.72;4984483;28;102475;-74
2021/05/29 06:49:42;;;;;;;6.45;5.85;;;;;;;18.91;66.12;100563.63;4990980;28;102194;-73
2021/05/29 06:52:14;;;;;;;6.63;6.03;;;;;;;18.90;66.37;100567.53;5002917;28;104122;-74
2021/05/29 07:00:11;;;;;;;6.28;5.88;;;;;;;18.90;65.97;100566.72;5012474;28;102618;-73
2021/05/29 07:02:39;;;;;;;7.05;6.35;;;;;;;18.88;66.00;100564.28;4998867;28;103890;-74
2021/05/29 07:05:09;;;;;;;7.25;6.38;;;;;;;18.88;66.33;100561.50;5003718;28;102017;-74
2021/05/29 07:07:36;;;;;;;7.25;6.43;;;;;;;18.88;66.12;100564.28;5006801;28;102094;-74
2021/05/29 07:10:04;;;;;;;7.15;6.55;;;;;;;18.88;65.95;100561.50;4991862;28;102307;-74
2021/05/29 07:12:31;;;;;;;7.28;6.68;;;;;;;18.88;65.83;100567.03;5001408;28;103929;-74
2021/05/29 07:14:58;;;;;;;7.55;6.95;;;;;;;18.88;65.82;100567.03;4995479;28;102305;-73
2021/05/29 07:17:30;;;;;;;7.82;7.13;;;;;;;18.88;66.50;100569.78;4973188;28;102301;-73
2021/05/29 07:19:58;;;;;;;7.80;7.10;;;;;;;18.86;66.66;100572.09;4991162;28;102454;-74
2021/05/29 07:22:25;;;;;;;8.88;8.02;;;;;;;18.87;66.41;100573.69;5002692;28;103675;-74
2021/05/29 07:24:52;;;;;;;9.18;8.32;;;;;;;18.86;66.44;100583.09;4996540;28;102298;-74
2021/05/29 07:27:18;;;;;;;9.10;8.40;;;;;;;18.86;66.72;100577.59;4987212;28;102523;-73
2021/05/29 07:29:45;;;;;;;8.80;7.95;;;;;;;18.87;66.36;100573.69;5006698;28;102769;-73
2021/05/29 07:32:11;;;;;;;8.85;8.15;;;;;;;18.87;66.04;100572.88;5001046;28;104034;-73
2021/05/29 07:34:38;;;;;;;8.40;7.75;;;;;;;18.87;66.50;100567.38;5010964;28;102908;-73
2021/05/29 07:37:12;;;;;;;9.50;8.80;;;;;;;18.87;65.98;100568.19;5001012;28;103386;-74
2021/05/29 07:39:39;;;;;;;8.98;8.27;;;;;;;18.88;66.60;100569.78;5008819;28;102702;-73
2021/05/29 07:42:06;;;;;;;8.50;7.70;;;;;;;18.89;66.12;100573.34;5002545;28;102702;-74
2021/05/29 07:44:32;;;;;;;9.07;8.23;;;;;;;18.89;66.26;100570.59;5000412;28;102729;-74
2021/05/29 07:46:59;;;;;;;9.98;9.10;;;;;;;18.90;66.65;100578.56;4992807;28;102352;-74
2021/05/29 07:49:27;;;;;;;8.85;8.05;;;;;;;18.90;66.24;100573.03;4997550;28;102426;-74
2021/05/29 07:51:53;;;;;;;8.90;8.13;;;;;;;18.91;66.59;100569.13;4998999;28;103694;-73
2021/05/29 07:54:20;;;;;;;9.60;8.80;;;;;;;18.91;66.71;100574.66;5005145;28;102569;-74
2021/05/29 07:56:47;;;;;;;9.32;8.43;;;;;;;18.93;66.29;100572.38;4999011;28;102666;-74
2021/05/29 07:59:17;;;;;;;10.13;9.15;;;;;;;18.93;66.44;100569.63;4985664;28;102808;-74
2021/05/29 08:01:44;;;;;;;9.77;8.88;;;;;;;18.96;66.07;100568.13;5004664;27;103912;-73
2021/05/29 08:04:12;;;;;;;10.63;9.73;;;;;;;18.95;66.01;100559.06;4984021;28;102975;-73
2021/05/29 08:06:39;;;;;;;10.98;10.07;;;;;;;18.96;66.28;100555.16;4994569;28;102568;-73
2021/05/29 08:09:07;;;;;;;11.80;10.70;;;;;;;18.99;66.22;100552.88;5004647;28;102717;-73
2021/05/29 08:11:36;;;;;;;10.70;9.80;;;;;;;19.01;66.06;100556.13;5002045;28;103930;-74
2021/05/29 08:14:03;;;;;;;10.65;9.55;;;;;;;19.02;66.15;100552.22;5005536;28;102450;-74
2021/05/29 08:16:31;;;;;;;10.85;9.95;;;;;;;19.04;66.41;100558.19;5005285;28;102197;-74
2021/05/29 08:18:58;;;;;;;10.55;9.48;;;;;;;19.05;66.04;100557.06;4997567;28;102504;-73
2021/05/29 08:21:25;;;;;;;11.32;10.32;;;;;;;19.07;66.21;100552.00;4997990;28;104001;-73
2021/05/29 08:23:53;;;;;;;11.50;10.60;;;;;;;19.06;65.93;100553.16;4996624;28;102631;-73
2021/05/29 08:26:19;;;;;;;10.93;9.93;;;;;;;19.08;66.21;100556.41;5002051;28;102425;-74
2021/05/29 08:28:47;;;;;;;12.07;10.98;;;;;;;19.09;65.68;100552.50;5009588;28;102476;-73
2021/05/29 08:31:14;;;;;;;11.63;10.55;;;;;;;19.09;66.02;100552.50;5002037;28;103891;-74
2021/05/29 08:33:41;;;;;;;12.93;9.73;;;;;;;19.15;66.05;100556.69;5001155;28;102483;-70
2021/05/29 08:36:08;;;;;;;13.10;11.75;;;;;;;19.27;65.69;100542.97;4995467;28;102478;-69
2021/05/29 08:38:37;;;;;;;21.42;10.57;;;;;;;19.40;65.72;100547.44;5008011;28;102411;-74
2021/05/29 08:41:05;;;;;;;18.30;10.98;;;;;;;19.50;65.77;100549.00;5005927;28;104042;-69
2021/05/29 08:43:31;;;;;;;24.23;10.57;;;;;;;19.56;65.18;100535.81;5007131;28;102784;-68
2021/05/29 08:45:59;;;;;;;12.63;10.10;;;;;;;19.59;65.23;100535.13;4990654;28;102230;-69
2021/05/29 08:48:26;;;;;;;26.05;11.55;;;;;;;19.66;65.73;100549.25;4999509;28;102278;-66
2021/05/29 08:53:37;;;;;;;19.92;10.15;;;;;;;19.65;65.29;100547.59;5004676;28;102326;-67
2021/05/29 08:56:04;;;;;;;58.75;12.05;;;;;;;19.67;64.98;100548.91;5004660;28;102592;-68
2021/05/29 08:58:31;;;;;;;43.88;10.82;;;;;;;19.66;65.19;100543.72;5005087;28;102334;-66
2021/05/29 09:01:01;;;;;;;25.02;10.07;;;;;;;19.67;65.02;100550.84;5001376;28;103960;-65
2021/05/29 09:03:39;;;;;;;56.13;11.88;;;;;;;19.71;65.82;100546.28;5000081;28;102562;-69
2021/05/29 09:06:07;;;;;;;46.05;9.88;;;;;;;19.72;65.41;100536.84;5000395;28;102860;-67
2021/05/29 09:08:33;;;;;;;20.40;9.38;;;;;;;19.72;65.37;100539.59;4993381;28;102704;-68
2021/05/29 09:11:03;;;;;;;35.05;10.88;;;;;;;19.73;65.06;100544.00;4986795;28;102775;-67
2021/05/29 09:13:30;;;;;;;;;;;;;;;19.76;65.22;100548.81;4991860;28;102051;-67
2021/05/29 09:15:59;;;;;;;43.63;11.35;;;;;;;19.81;65.66;100551.38;5000705;28;102729;-65
2021/05/29 09:18:31;;;;;;;30.23;10.48;;;;;;;19.85;65.64;100551.53;4991404;28;102453;-66
2021/05/29 09:21:17;;;;;;;21.00;9.82;;;;;;;19.88;65.27;100551.66;4994932;28;103956;-66
2021/05/29 09:23:46;;;;;;;18.05;9.55;;;;;;;19.84;65.72;100556.25;5000550;28;102350;-67
2021/05/29 09:26:13;;;;;;;18.58;9.55;;;;;;;19.81;65.27;100558.88;5003444;28;102288;-67
2021/05/29 09:28:42;;;;;;;14.43;8.93;;;;;;;19.79;65.03;100553.66;5010288;28;102259;-68
2021/05/29 09:31:14;;;;;;;13.48;8.63;;;;;;;19.81;64.65;100556.09;4993878;28;104153;-67
2021/05/29 09:33:42;;;;;;;14.50;7.97;;;;;;;19.81;65.24;100545.88;5007013;28;102152;-67
2021/05/29 09:36:11;;;;;;;18.08;8.85;;;;;;;19.82;64.75;100543.91;4988076;28;102605;-68
2021/05/29 09:38:39;;;;;;;11.88;8.80;;;;;;;19.84;64.69;100534.16;5001204;28;103221;-67
2021/05/29 09:41:17;;;;;;;10.27;7.95;;;;;;;19.86;64.58;100531.03;5007439;28;104137;-67
2021/05/29 09:43:59;;;;;;;110.30;16.45;;;;;;;19.88;65.16;100529.56;4997329;28;102155;-71
2021/05/29 09:46:28;;;;;;;197.68;24.02;;;;;;;19.97;64.95;100514.84;4998962;28;102838;-68
2021/05/29 09:48:56;;;;;;;83.40;14.63;;;;;;;19.99;64.70;100523.63;4985234;28;102902;-66
2021/05/29 09:51:23;;;;;;;;;;;;;;;20.03;64.86;100516.25;5002321;28;104341;-68
2021/05/29 09:53:52;;;;;;;39.03;9.73;;;;;;;20.08;64.65;100516.03;4986724;28;102468;-66
2021/05/29 09:56:25;;;;;;;35.90;9.82;;;;;;;20.09;64.15;100518.47;5003743;28;103298;-68
2021/05/29 09:58:58;;;;;;;175.13;18.02;;;;;;;20.11;64.54;100521.69;4995003;28;102351;-69
2021/05/29 10:01:46;;;;;;;260.73;26.20;;;;;;;20.21;64.25;100519.66;4994761;28;103793;-69
2021/05/29 10:04:15;;;;;;;298.73;28.05;;;;;;;20.26;64.52;100516.66;4993594;28;102730;-67
2021/05/29 10:06:42;;;;;;;;;;;;;;;20.26;64.27;100520.25;4989208;28;102510;-70
2021/05/29 10:09:08;;;;;;;259.83;23.08;;;;;;;20.27;64.24;100521.06;4994539;28;102375;-68
2021/05/29 10:11:37;;;;;;;173.65;19.60;;;;;;;20.29;63.88;100522.31;4995949;28;103937;-66
2021/05/29 10:14:06;;;;;;;127.80;16.55;;;;;;;20.28;63.84;100512.44;4998562;28;102461;-67
2021/05/29 10:16:34;;;;;;;98.05;15.13;;;;;;;20.31;63.43;100511.75;4985164;28;102211;-74
2021/05/29 10:19:02;;;;;;;67.97;12.13;;;;;;;20.35;63.37;100509.09;5005563;28;102690;-70
2021/05/29 10:21:32;;;;;;;48.03;11.67;;;;;;;20.41;63.07;100513.25;5007430;28;104000;-72
2021/05/29 10:24:00;;;;;;;42.72;11.00;;;;;;;20.46;63.25;100509.47;4985607;28;102950;-66
2021/05/29 10:26:29;;;;;;;28.98;10.27;;;;;;;20.57;62.56;100505.13;5006162;28;102705;-66
2021/05/29 10:28:56;;;;;;;45.42;10.80;;;;;;;20.61;62.27;100500.53;4995902;28;102235;-69
2021/05/29 10:31:28;;;;;;;27.02;9.45;;;;;;;20.64;62.34;100508.16;4987359;28;104089;-69
2021/05/29 10:33:54;;;;;;;68.32;11.25;;;;;;;20.75;62.86;100495.47;4998944;28;102299;-70
2021/05/29 10:36:46;;;;;;;222.82;21.98;;;;;;;20.76;63.44;100499.84;5005673;28;102423;-66
2021/05/29 10:39:22;;;;;;;201.27;22.58;;;;;;;20.74;63.46;100493.06;4989230;28;102257;-64
2021/05/29 10:41:57;;;;;;;165.02;17.50;;;;;;;20.63;63.46;100506.53;4985018;28;103957;-70
2021/05/29 10:44:36;;;;;;;50.95;10.38;;;;;;;20.61;63.22;100500.53;5001318;28;102010;-62
2021/05/29 10:47:10;;;;;;;58.55;10.95;;;;;;;20.56;63.29;100501.56;4982081;28;102408;-62
2021/05/29 10:49:58;;;;;;;38.97;9.93;;;;;;;20.54;62.82;100503.06;4992748;28;105133;-62
2021/05/29 10:52:50;;;;;;;25.17;8.30;;;;;;;20.54;63.30;100494.75;4999797;28;104073;-65
2021/05/29 10:55:22;;;;;;;24.05;8.45;;;;;;;20.64;63.60;100502.63;4997826;28;101999;-62
2021/05/29 10:57:50;;;;;;;43.88;8.95;;;;;;;20.68;64.40;100502.72;5002822;28;103300;-62
2021/05/29 11:00:49;;;;;;;25.35;7.57;;;;;;;20.67;64.16;100504.69;5005333;28;102411;-62
2021/05/29 11:03:37;;;;;;;16.52;7.07;;;;;;;20.65;63.98;100495.94;4994892;28;103340;-62
2021/05/29 11:06:30;;;;;;;8.55;6.88;;;;;;;20.67;64.11;100492.84;4987222;28;102395;-62
2021/05/29 11:09:00;;;;;;;10.43;6.63;;;;;;;20.67;64.21;100496.41;4989975;28;102578;-61
2021/05/29 11:11:53;;;;;;;12.05;7.22;;;;;;;20.66;64.08;100499.50;5001046;28;102585;-61
2021/05/29 11:14:24;;;;;;;10.38;6.55;;;;;;;20.62;63.80;100497.41;5007590;28;104908;-61
2021/05/29 11:17:11;;;;;;;8.23;6.00;;;;;;;20.59;64.07;100502.81;5015256;28;102690;-61
2021/05/29 11:19:41;;;;;;;7.22;6.32;;;;;;;20.58;63.88;100507.53;5006869;28;102109;-62
2021/05/29 11:22:09;;;;;;;;;;;;;;;20.57;63.82;100500.41;5005603;28;102947;-61
2021/05/29 11:24:42;;;;;;;9.38;5.63;;;;;;;20.57;63.53;100494.09;5005662;28;102458;-61
2021/05/29 11:27:10;;;;;;;6.80;6.18;;;;;;;20.61;64.17;100500.53;5008446;28;102422;-62
2021/05/29 11:29:47;;;;;;;8.00;5.85;;;;;;;20.64;63.89;100494.31;5008944;28;103313;-62
2021/05/29 11:32:14;;;;;;;8.98;5.85;;;;;;;20.67;63.94;100496.41;4999485;28;102365;-61
2021/05/29 11:34:42;;;;;;;11.70;6.38;;;;;;;20.70;63.88;100504.00;4996451;28;103970;-62
2021/05/29 11:37:13;;;;;;;8.13;6.47;;;;;;;20.68;63.86;100505.50;5007178;28;103072;-62